Time;durP1;ratioP1;P1;durP2;ratioP2;P2;SDS_P1;SDS_P2;PMS_P1;PMS_P2;Temp;Humidity;BMP_temperature;BMP_pressure;BME280_temperature;BME280_humidity;BME280_pressure;Samples;Min_cycle;Max_cycle;Signal;HPM_P1;HPM_P2
2022/05/01 00:01:41;;;;;;;19.88;10.73;;;;;;;;;;5047867;28;20033;-84
2022/05/01 00:04:08;;;;;;;17.75;10.90;;;;;;;;;;5048429;28;20025;-85
2022/05/01 00:06:34;;;;;;;15.60;10.93;;;;;;;;;;5048404;28;20023;-84
2022/05/01 00:09:00;;;;;;;18.45;11.38;;;;;;;;;;5046974;28;20496;-84
2022/05/01 00:11:28;;;;;;;19.38;11.23;;;;;;;;;;5047284;28;20094;-85
2022/05/01 00:13:54;;;;;;;15.15;10.35;;;;;;;;;;5048366;28;20025;-85
2022/05/01 00:16:20;;;;;;;18.23;11.27;;;;;;;;;;5047013;28;20269;-85
2022/05/01 00:18:46;;;;;;;16.73;11.25;;;;;;;;;;5047896;28;20025;-86
2022/05/01 00:21:12;;;;;;;14.95;10.90;;;;;;;;;;5051042;28;20051;-85
2022/05/01 00:23:38;;;;;;;19.30;10.52;;;;;;;;;;5051240;28;20029;-85
2022/05/01 00:26:06;;;;;;;18.38;11.07;;;;;;;;;;5051308;28;20025;-86
2022/05/01 00:28:32;;;;;;;14.35;10.60;;;;;;;;;;5050664;28;20353;-85
2022/05/01 00:30:59;;;;;;;17.55;10.07;;;;;;;;;;5052474;28;20021;-84
2022/05/01 00:36:27;;;;;;;15.60;10.70;;;;;;;;;;5051322;28;20538;-85
2022/05/01 00:38:53;;;;;;;14.77;10.07;;;;;;;;;;5051608;28;20059;-84
2022/05/01 00:41:23;;;;;;;18.50;10.52;;;;;;;;;;5049636;28;20037;-84
2022/05/01 00:43:56;;;;;;;16.02;10.48;;;;;;;;;;5050243;28;20035;-84
2022/05/01 00:46:23;;;;;;;17.02;10.55;;;;;;;;;;5049978;28;20507;-85
2022/05/01 00:48:49;;;;;;;15.95;11.07;;;;;;;;;;5051226;28;20058;-84
2022/05/01 00:51:15;;;;;;;14.38;11.00;;;;;;;;;;5049419;28;20037;-84
2022/05/01 00:53:41;;;;;;;17.80;10.68;;;;;;;;;;5050852;28;20457;-83
2022/05/01 00:56:07;;;;;;;16.25;10.38;;;;;;;;;;5049913;28;20119;-84
2022/05/01 00:58:34;;;;;;;14.45;10.57;;;;;;;;;;5050164;28;20025;-84
2022/05/01 01:01:00;;;;;;;21.30;11.25;;;;;;;;;;5051463;28;20029;-85
2022/05/01 01:03:26;;;;;;;15.40;10.55;;;;;;;;;;5050989;28;20473;-84
2022/05/01 01:05:52;;;;;;;14.73;10.20;;;;;;;;;;5050985;28;20036;-85
2022/05/01 01:08:18;;;;;;;15.60;10.20;;;;;;;;;;5050643;28;20041;-84
2022/05/01 01:10:44;;;;;;;14.30;10.52;;;;;;;;;;5050584;28;20029;-84
2022/05/01 01:13:12;;;;;;;16.02;9.88;;;;;;;;;;5058684;28;20036;-84
2022/05/01 01:15:38;;;;;;;14.10;10.35;;;;;;;;;;5075201;28;20076;-85
2022/05/01 01:18:04;;;;;;;15.48;10.63;;;;;;;;;;5075776;28;20023;-84
2022/05/01 01:20:31;;;;;;;20.25;10.52;;;;;;;;;;5076647;28;20013;-86
2022/05/01 01:22:59;;;;;;;18.88;10.70;;;;;;;;;;5062485;28;20032;-85
2022/05/01 01:25:27;;;;;;;12.77;10.00;;;;;;;;;;5051232;28;20036;-85
2022/05/01 01:27:56;;;;;;;18.55;10.52;;;;;;;;;;5050008;28;20119;-84
2022/05/01 01:33:07;;;;;;;19.13;9.90;;;;;;;;;;5049588;28;20032;-84
2022/05/01 01:35:35;;;;;;;17.95;9.98;;;;;;;;;;5051319;28;20035;-85
2022/05/01 01:38:01;;;;;;;15.83;10.03;;;;;;;;;;5049661;28;20039;-85
2022/05/01 01:40:47;;;;;;;13.55;9.80;;;;;;;;;;5050376;28;20028;-85
2022/05/01 01:43:14;;;;;;;13.95;9.60;;;;;;;;;;5048871;28;20136;-84
2022/05/01 01:45:40;;;;;;;16.25;9.90;;;;;;;;;;5050474;28;20032;-84
2022/05/01 01:48:10;;;;;;;12.52;9.10;;;;;;;;;;5050352;28;20025;-85
2022/05/01 01:50:36;;;;;;;13.88;9.10;;;;;;;;;;5050036;28;20025;-85
2022/05/01 01:53:02;;;;;;;13.77;9.30;;;;;;;;;;5050804;28;20370;-85
2022/05/01 01:55:35;;;;;;;13.75;9.40;;;;;;;;;;5049735;28;20033;-85
2022/05/01 01:58:02;;;;;;;16.02;9.13;;;;;;;;;;5049127;28;20096;-84
2022/05/01 02:00:28;;;;;;;15.38;9.40;;;;;;;;;;5050163;28;20024;-85
2022/05/01 02:02:58;;;;;;;12.38;9.73;;;;;;;;;;5049925;28;20021;-84
2022/05/01 02:05:24;;;;;;;15.13;8.90;;;;;;;;;;5050142;28;20020;-84
2022/05/01 02:07:50;;;;;;;13.60;9.48;;;;;;;;;;5049984;28;20033;-85
2022/05/01 02:10:16;;;;;;;13.30;9.07;;;;;;;;;;5049422;28;20064;-84
2022/05/01 02:12:42;;;;;;;15.25;9.52;;;;;;;;;;5048034;28;20488;-84
2022/05/01 02:15:08;;;;;;;16.52;8.98;;;;;;;;;;5048610;28;20025;-84
2022/05/01 02:17:35;;;;;;;14.50;9.60;;;;;;;;;;5050432;28;20070;-86
2022/05/01 02:20:01;;;;;;;14.18;9.23;;;;;;;;;;5048186;28;20029;-85
2022/05/01 02:22:27;;;;;;;12.98;9.65;;;;;;;;;;5048635;28;20071;-87
2022/05/01 02:24:54;;;;;;;11.40;8.68;;;;;;;;;;5049504;28;20032;-85
2022/05/01 02:27:20;;;;;;;12.63;8.60;;;;;;;;;;5048096;28;20029;-85
2022/05/01 02:29:47;;;;;;;14.70;9.65;;;;;;;;;;5049571;28;20037;-86
2022/05/01 02:32:13;;;;;;;15.40;9.18;;;;;;;;;;5047960;28;20039;-85
2022/05/01 02:34:40;;;;;;;14.80;9.48;;;;;;;;;;5049516;28;20040;-84
2022/05/01 02:37:06;;;;;;;20.23;9.63;;;;;;;;;;5047430;28;20032;-85
2022/05/01 02:39:33;;;;;;;11.43;8.60;;;;;;;;;;5048525;28;20400;-86
2022/05/01 02:41:59;;;;;;;14.27;8.63;;;;;;;;;;5047625;28;20243;-85
2022/05/01 02:44:25;;;;;;;13.55;8.45;;;;;;;;;;5049240;28;20153;-85
2022/05/01 02:46:51;;;;;;;11.65;8.45;;;;;;;;;;5049195;28;20044;-87
2022/05/01 02:49:17;;;;;;;10.77;9.07;;;;;;;;;;5048975;28;20378;-86
2022/05/01 02:51:43;;;;;;;13.90;8.82;;;;;;;;;;5048716;28;20031;-85
2022/05/01 02:54:09;;;;;;;14.40;9.45;;;;;;;;;;5053315;28;20115;-85
2022/05/01 02:56:35;;;;;;;16.67;8.80;;;;;;;;;;5049155;28;20021;-86
2022/05/01 02:59:01;;;;;;;9.88;7.93;;;;;;;;;;5048206;28;20397;-86
2022/05/01 03:01:30;;;;;;;12.60;8.20;;;;;;;;;;5048706;28;20496;-87
2022/05/01 03:03:56;;;;;;;12.07;8.48;;;;;;;;;;5048840;28;20033;-86
2022/05/01 03:06:22;;;;;;;15.93;8.52;;;;;;;;;;5048498;28;20025;-86
2022/05/01 03:08:48;;;;;;;13.30;8.13;;;;;;;;;;5048416;28;20098;-87
2022/05/01 03:11:14;;;;;;;11.70;8.23;;;;;;;;;;5048735;28;20021;-86
2022/05/01 03:13:41;;;;;;;12.13;8.85;;;;;;;;;;5047665;28;20409;-86
2022/05/01 03:16:07;;;;;;;11.85;8.30;;;;;;;;;;5049679;28;20021;-85
2022/05/01 03:24:02;;;;;;;14.68;7.97;;;;;;;;;;5048798;28;20036;-87
2022/05/01 03:26:28;;;;;;;10.35;7.88;;;;;;;;;;5048423;28;20029;-86
2022/05/01 03:28:54;;;;;;;14.35;8.77;;;;;;;;;;5048619;28;20463;-85
2022/05/01 03:31:20;;;;;;;11.60;7.85;;;;;;;;;;5047297;28;20508;-85
2022/05/01 03:33:46;;;;;;;11.00;7.28;;;;;;;;;;5048421;28;20106;-86
2022/05/01 03:36:12;;;;;;;10.05;7.60;;;;;;;;;;5047464;28;20076;-86
2022/05/01 03:38:40;;;;;;;12.00;7.93;;;;;;;;;;5048043;28;20040;-85
2022/05/01 03:41:07;;;;;;;10.38;7.82;;;;;;;;;;5047999;28;20029;-86
2022/05/01 03:43:34;;;;;;;11.15;7.38;;;;;;;;;;5048852;28;20033;-87
2022/05/01 03:46:01;;;;;;;13.95;8.10;;;;;;;;;;5048389;28;20056;-85
2022/05/01 03:48:28;;;;;;;13.20;7.80;;;;;;;;;;5073529;28;20051;-85
2022/05/01 03:50:54;;;;;;;11.30;7.30;;;;;;;;;;5071799;28;20020;-86
2022/05/01 03:53:21;;;;;;;12.68;7.68;;;;;;;;;;5070209;28;20037;-85
2022/05/01 03:55:47;;;;;;;10.30;7.57;;;;;;;;;;5055069;28;20021;-86
2022/05/01 03:58:13;;;;;;;13.10;7.93;;;;;;;;;;5053492;28;20443;-87
2022/05/01 04:00:44;;;;;;;10.13;7.68;;;;;;;;;;5054262;28;20045;-87
2022/05/01 04:03:10;;;;;;;11.98;7.53;;;;;;;;;;5052053;28;20116;-86
2022/05/01 04:05:36;;;;;;;9.68;7.00;;;;;;;;;;5052524;28;20465;-87
2022/05/01 04:08:02;;;;;;;14.07;7.95;;;;;;;;;;5051055;28;20112;-85
2022/05/01 04:10:28;;;;;;;10.23;8.30;;;;;;;;;;5050573;28;20040;-86
2022/05/01 04:12:54;;;;;;;14.23;7.82;;;;;;;;;;5050865;28;20031;-86
2022/05/01 04:15:20;;;;;;;15.40;7.90;;;;;;;;;;5050925;28;20438;-87
2022/05/01 04:17:46;;;;;;;11.15;7.80;;;;;;;;;;5052142;28;20533;-87
2022/05/01 04:20:14;;;;;;;10.80;7.45;;;;;;;;;;5052624;28;20386;-87
2022/05/01 04:22:41;;;;;;;10.88;7.95;;;;;;;;;;5051793;28;20527;-86
2022/05/01 04:25:16;;;;;;;9.73;7.40;;;;;;;;;;5050837;28;20037;-85
2022/05/01 04:27:43;;;;;;;12.73;8.10;;;;;;;;;;5051136;28;20029;-87
2022/05/01 04:30:11;;;;;;;11.10;7.53;;;;;;;;;;5051479;28;20064;-88
2022/05/01 04:33:09;;;;;;;11.70;7.53;;;;;;;;;;5050592;28;20071;-87
2022/05/01 04:35:40;;;;;;;10.95;7.20;;;;;;;;;;5018699;28;20128;-86
2022/05/01 04:38:23;;;;;;;12.85;7.50;;;;;;;;;;5051667;28;20027;-85
2022/05/01 04:40:58;;;;;;;11.88;7.63;;;;;;;;;;5051748;28;20055;-86
2022/05/01 04:43:30;;;;;;;9.65;7.32;;;;;;;;;;5051384;28;20031;-86
2022/05/01 04:45:57;;;;;;;16.00;8.10;;;;;;;;;;5051546;28;20128;-86
2022/05/01 04:48:24;;;;;;;12.50;8.00;;;;;;;;;;5051338;28;20029;-87
2022/05/01 04:50:50;;;;;;;9.60;8.00;;;;;;;;;;5051565;28;20059;-86
2022/05/01 04:53:17;;;;;;;11.93;7.80;;;;;;;;;;5051545;28;20021;-88
2022/05/01 04:55:44;;;;;;;10.18;7.75;;;;;;;;;;5050987;28;20028;-87
2022/05/01 04:58:10;;;;;;;11.32;7.75;;;;;;;;;;5051533;28;20025;-88
2022/05/01 05:00:37;;;;;;;10.20;7.60;;;;;;;;;;5051259;28;20061;-86
2022/05/01 05:03:03;;;;;;;11.02;7.93;;;;;;;;;;5049613;28;20021;-88
2022/05/01 05:05:31;;;;;;;11.10;7.13;;;;;;;;;;5049611;28;20413;-87
2022/05/01 05:09:53;;;;;;;8.87;6.80;;;;;;;;;;5049833;28;20100;-87
2022/05/01 05:10:46;;;;;;;13.00;7.45;;;;;;;;;;5051791;28;20279;-87
2022/05/01 05:13:12;;;;;;;;;;;;;;;;;;5050528;28;20489;-87
2022/05/01 05:15:38;;;;;;;12.18;6.80;;;;;;;;;;5049947;28;19963;-87
2022/05/01 05:18:04;;;;;;;13.65;7.57;;;;;;;;;;5050961;28;20032;-86
2022/05/01 05:20:30;;;;;;;11.52;7.00;;;;;;;;;;5051307;28;20100;-87
2022/05/01 05:22:56;;;;;;;12.43;7.60;;;;;;;;;;5050363;28;20061;-88
2022/05/01 05:25:22;;;;;;;12.73;8.07;;;;;;;;;;5049654;28;20025;-87
2022/05/01 05:27:48;;;;;;;13.60;7.63;;;;;;;;;;5049375;28;20095;-87
2022/05/01 05:30:14;;;;;;;13.52;7.22;;;;;;;;;;5051562;28;20485;-87
2022/05/01 05:32:40;;;;;;;10.00;7.38;;;;;;;;;;5049530;28;20051;-87
2022/05/01 05:35:06;;;;;;;10.50;7.93;;;;;;;;;;5049479;28;20021;-87
2022/05/01 05:37:33;;;;;;;11.13;7.50;;;;;;;;;;5048696;28;20075;-87
2022/05/01 05:39:59;;;;;;;9.43;7.28;;;;;;;;;;5049170;28;20025;-86
2022/05/01 05:42:25;;;;;;;12.40;7.57;;;;;;;;;;5049364;28;20025;-87
2022/05/01 05:44:51;;;;;;;11.82;7.55;;;;;;;;;;5050353;28;20462;-87
2022/05/01 05:47:17;;;;;;;9.13;6.80;;;;;;;;;;5051458;28;20052;-88
2022/05/01 05:49:43;;;;;;;12.13;6.90;;;;;;;;;;5049920;28;20405;-85
2022/05/01 05:52:09;;;;;;;12.90;7.20;;;;;;;;;;5050430;28;20542;-87
2022/05/01 05:54:35;;;;;;;11.68;6.72;;;;;;;;;;5050222;28;20540;-88
2022/05/01 05:57:02;;;;;;;11.25;7.07;;;;;;;;;;5048808;28;20060;-86
2022/05/01 05:59:28;;;;;;;9.90;6.63;;;;;;;;;;5050402;28;20523;-87
2022/05/01 06:01:54;;;;;;;12.93;6.78;;;;;;;;;;5050451;28;20021;-85
2022/05/01 06:04:20;;;;;;;12.23;6.75;;;;;;;;;;5050447;28;20061;-87
2022/05/01 06:06:46;;;;;;;11.68;7.18;;;;;;;;;;5049178;28;20096;-86
2022/05/01 06:09:12;;;;;;;13.15;6.72;;;;;;;;;;5049631;28;20033;-87
2022/05/01 06:11:38;;;;;;;10.07;6.35;;;;;;;;;;5049764;28;20109;-87
2022/05/01 06:14:04;;;;;;;10.00;6.78;;;;;;;;;;5049954;28;20036;-87
2022/05/01 06:16:31;;;;;;;11.38;7.18;;;;;;;;;;5050232;28;20384;-86
2022/05/01 06:18:59;;;;;;;11.80;6.72;;;;;;;;;;5048661;28;20059;-85
2022/05/01 06:21:25;;;;;;;12.20;6.80;;;;;;;;;;5049339;28;20028;-89
2022/05/01 06:23:51;;;;;;;10.65;6.80;;;;;;;;;;5053782;28;20025;-86
2022/05/01 06:26:17;;;;;;;8.75;6.30;;;;;;;;;;5074896;28;20010;-88
2022/05/01 06:28:43;;;;;;;9.20;6.38;;;;;;;;;;5074835;28;20047;-87
2022/05/01 06:31:09;;;;;;;9.95;6.32;;;;;;;;;;5060875;28;20024;-88
2022/05/01 06:33:36;;;;;;;10.40;6.75;;;;;;;;;;5052655;28;20032;-89
2022/05/01 06:36:02;;;;;;;8.80;6.45;;;;;;;;;;5048650;28;20021;-87
2022/05/01 06:38:28;;;;;;;10.70;6.47;;;;;;;;;;5049525;28;20025;-87
2022/05/01 06:40:55;;;;;;;14.75;6.68;;;;;;;;;;5048318;28;20021;-86
2022/05/01 06:43:21;;;;;;;11.45;6.25;;;;;;;;;;5049124;28;20029;-88
2022/05/01 06:45:48;;;;;;;9.30;6.53;;;;;;;;;;5050486;28;20021;-88
2022/05/01 06:48:14;;;;;;;9.13;6.57;;;;;;;;;;5049648;28;20033;-87
2022/05/01 06:50:40;;;;;;;10.10;6.20;;;;;;;;;;5049310;28;20052;-87
2022/05/01 06:53:07;;;;;;;12.18;6.22;;;;;;;;;;5049523;28;20036;-87
2022/05/01 06:55:34;;;;;;;11.13;6.18;;;;;;;;;;5047938;28;20025;-86
2022/05/01 06:58:00;;;;;;;15.10;6.75;;;;;;;;;;5048932;28;20033;-86
2022/05/01 07:00:26;;;;;;;9.35;6.65;;;;;;;;;;5048167;28;20025;-89
2022/05/01 07:02:53;;;;;;;7.72;6.18;;;;;;;;;;5049947;28;20500;-86
2022/05/01 07:05:20;;;;;;;12.55;5.90;;;;;;;;;;5050155;28;20055;-86
2022/05/01 07:07:46;;;;;;;8.77;6.22;;;;;;;;;;5047813;28;20497;-87
2022/05/01 07:10:13;;;;;;;11.57;6.70;;;;;;;;;;5048572;28;20041;-87
2022/05/01 07:12:39;;;;;;;11.50;6.88;;;;;;;;;;5045340;28;20079;-86
2022/05/01 07:15:06;;;;;;;8.60;6.30;;;;;;;;;;5049234;28;20052;-86
2022/05/01 07:17:32;;;;;;;9.73;6.75;;;;;;;;;;5049102;28;20068;-87
2022/05/01 07:19:58;;;;;;;11.70;6.45;;;;;;;;;;5048913;28;20021;-86
2022/05/01 07:22:24;;;;;;;11.82;6.47;;;;;;;;;;5048459;28;20029;-86
2022/05/01 07:24:50;;;;;;;8.35;5.80;;;;;;;;;;5049629;28;20038;-85
2022/05/01 07:27:16;;;;;;;8.65;5.85;;;;;;;;;;5049233;28;20145;-84
2022/05/01 07:29:43;;;;;;;13.15;6.85;;;;;;;;;;5049203;28;20120;-87
2022/05/01 07:32:09;;;;;;;8.38;5.57;;;;;;;;;;5053349;28;20025;-85
2022/05/01 07:34:35;;;;;;;7.38;5.90;;;;;;;;;;5053128;28;20411;-88
2022/05/01 07:37:02;;;;;;;9.80;5.97;;;;;;;;;;5052211;28;20396;-84
2022/05/01 07:39:28;;;;;;;11.40;6.60;;;;;;;;;;5052479;28;20032;-89
2022/05/01 07:41:54;;;;;;;8.93;5.95;;;;;;;;;;5053163;28;20036;-85
2022/05/01 07:44:20;;;;;;;12.77;6.35;;;;;;;;;;5052408;28;20547;-87
2022/05/01 07:46:46;;;;;;;9.38;5.30;;;;;;;;;;5050677;28;20025;-85
2022/05/01 07:49:12;;;;;;;9.23;6.20;;;;;;;;;;5049381;28;20040;-85
2022/05/01 07:51:40;;;;;;;8.77;6.20;;;;;;;;;;5049593;28;20017;-87
2022/05/01 07:54:06;;;;;;;8.60;6.25;;;;;;;;;;5048513;28;20025;-86
2022/05/01 07:56:33;;;;;;;8.15;6.20;;;;;;;;;;5050214;28;20096;-85
2022/05/01 07:58:59;;;;;;;11.05;6.50;;;;;;;;;;5049941;28;20035;-86
2022/05/01 08:01:26;;;;;;;7.55;5.93;;;;;;;;;;5049996;28;20025;-84
2022/05/01 08:06:36;;;;;;;8.98;6.05;;;;;;;;;;5049310;28;20028;-86
2022/05/01 08:09:03;;;;;;;8.30;6.07;;;;;;;;;;5049747;28;20036;-88
2022/05/01 08:11:29;;;;;;;10.40;5.95;;;;;;;;;;5049743;28;20028;-86
2022/05/01 08:13:56;;;;;;;8.82;5.40;;;;;;;;;;5048145;28;20040;-86
2022/05/01 08:16:22;;;;;;;8.60;5.72;;;;;;;;;;5052537;28;20435;-87
2022/05/01 08:21:35;;;;;;;6.80;5.38;;;;;;;;;;5049917;28;20047;-85
2022/05/01 08:24:02;;;;;;;9.93;5.55;;;;;;;;;;5049972;28;20028;-87
2022/05/01 08:26:33;;;;;;;10.25;5.63;;;;;;;;;;5039118;28;20405;-87
2022/05/01 08:29:00;;;;;;;8.10;5.60;;;;;;;;;;5048244;28;20057;-85
2022/05/01 08:31:26;;;;;;;9.88;5.75;;;;;;;;;;5061018;28;20013;-87
2022/05/01 08:33:52;;;;;;;11.70;6.22;;;;;;;;;;5054148;28;20036;-85
2022/05/01 08:36:18;;;;;;;10.05;5.90;;;;;;;;;;5056700;28;20025;-89
2022/05/01 08:38:44;;;;;;;7.68;5.30;;;;;;;;;;5050199;28;20224;-88
2022/05/01 08:41:11;;;;;;;6.85;5.35;;;;;;;;;;5051601;28;20070;-88
2022/05/01 08:43:37;;;;;;;8.32;5.80;;;;;;;;;;5051357;28;20037;-87
2022/05/01 08:46:03;;;;;;;6.80;5.10;;;;;;;;;;5050831;28;20096;-89
2022/05/01 08:49:04;;;;;;;8.07;5.60;;;;;;;;;;5047744;28;20180;-87
2022/05/01 08:51:32;;;;;;;8.02;5.35;;;;;;;;;;5039104;28;20047;-87
2022/05/01 08:53:58;;;;;;;7.22;5.10;;;;;;;;;;5050103;28;20044;-85
2022/05/01 08:56:27;;;;;;;10.90;5.18;;;;;;;;;;5050540;28;20021;-87
2022/05/01 08:58:54;;;;;;;12.35;5.40;;;;;;;;;;5050497;28;20029;-88
2022/05/01 09:01:21;;;;;;;8.02;5.07;;;;;;;;;;5050764;28;20025;-87
2022/05/01 09:03:47;;;;;;;10.40;5.32;;;;;;;;;;5062836;28;20029;-88
2022/05/01 09:06:13;;;;;;;7.78;5.13;;;;;;;;;;5076275;28;20009;-88
2022/05/01 09:08:40;;;;;;;10.38;4.95;;;;;;;;;;5075105;28;20052;-89
2022/05/01 09:13:51;;;;;;;8.80;5.35;;;;;;;;;;5057046;28;20064;-87
2022/05/01 09:16:17;;;;;;;9.32;5.40;;;;;;;;;;5050179;28;20025;-86
2022/05/01 09:18:43;;;;;;;7.82;4.82;;;;;;;;;;5059882;28;20021;-87
2022/05/01 09:21:09;;;;;;;5.82;4.50;;;;;;;;;;5070666;28;20476;-87
2022/05/01 09:23:39;;;;;;;10.02;5.35;;;;;;;;;;5065603;28;20028;-86
2022/05/01 09:26:10;;;;;;;8.70;4.55;;;;;;;;;;5048524;28;20025;-88
2022/05/01 09:28:56;;;;;;;5.78;4.80;;;;;;;;;;5050040;28;20033;-86
2022/05/01 09:31:40;;;;;;;6.82;4.50;;;;;;;;;;5049906;28;20045;-86
2022/05/01 09:34:23;;;;;;;6.68;4.97;;;;;;;;;;5047726;28;20029;-86
2022/05/01 09:36:49;;;;;;;9.07;4.65;;;;;;;;;;5032427;28;20112;-86
2022/05/01 09:39:19;;;;;;;7.07;4.30;;;;;;;;;;5048091;28;20028;-87
2022/05/01 09:41:45;;;;;;;8.98;4.82;;;;;;;;;;5049644;28;20443;-85
2022/05/01 09:44:16;;;;;;;5.25;4.07;;;;;;;;;;5048218;28;20033;-86
2022/05/01 09:46:44;;;;;;;6.40;4.50;;;;;;;;;;5049660;28;20074;-85
2022/05/01 09:49:13;;;;;;;6.43;4.53;;;;;;;;;;5048720;28;20175;-86
2022/05/01 09:51:38;;;;;;;;;;;;;;;;;;5049223;28;20021;-87
2022/05/01 09:54:05;;;;;;;6.22;4.50;;;;;;;;;;5063948;28;19905;-86
2022/05/01 09:57:07;;;;;;;18.95;4.88;;;;;;;;;;5049007;28;20067;-86
2022/05/01 09:59:45;;;;;;;7.88;4.40;;;;;;;;;;4987848;28;20057;-86
2022/05/01 10:02:11;;;;;;;7.78;4.28;;;;;;;;;;5037042;28;20123;-86
2022/05/01 10:04:38;;;;;;;6.90;4.30;;;;;;;;;;5045525;28;20083;-88
2022/05/01 10:07:05;;;;;;;9.82;4.55;;;;;;;;;;5043621;28;20029;-85
2022/05/01 10:09:32;;;;;;;5.55;4.25;;;;;;;;;;5047198;28;20075;-88
2022/05/01 10:11:59;;;;;;;11.63;4.70;;;;;;;;;;5047137;28;20040;-87
2022/05/01 10:14:28;;;;;;;610.40;387.85;;;;;;;;;;5043405;28;20504;-82
2022/05/01 10:16:54;;;;;;;1999.90;999.90;;;;;;;;;;5046918;28;20047;-83
2022/05/01 10:19:23;;;;;;;1977.63;878.72;;;;;;;;;;5044917;28;20048;-85
2022/05/01 10:21:50;;;;;;;1999.90;999.90;;;;;;;;;;5046814;28;20504;-87
2022/05/01 10:24:17;;;;;;;1058.25;614.00;;;;;;;;;;5046567;28;20392;-86
2022/05/01 10:26:53;;;;;;;274.85;182.15;;;;;;;;;;5045294;28;20029;-84
2022/05/01 10:29:33;;;;;;;22.73;17.83;;;;;;;;;;5046817;28;20405;-84
2022/05/01 10:32:21;;;;;;;14.43;7.10;;;;;;;;;;5047499;28;20149;-83
2022/05/01 10:35:05;;;;;;;14.00;6.70;;;;;;;;;;5047338;28;20041;-86
2022/05/01 10:37:50;;;;;;;9.32;5.20;;;;;;;;;;5046931;28;20040;-85
2022/05/01 10:40:17;;;;;;;11.30;4.72;;;;;;;;;;5047129;28;20548;-86
2022/05/01 10:42:48;;;;;;;10.90;5.00;;;;;;;;;;5046901;28;20495;-86
2022/05/01 10:45:23;;;;;;;8.10;4.53;;;;;;;;;;5045650;28;20074;-87
2022/05/01 10:47:51;;;;;;;7.25;4.10;;;;;;;;;;5046641;28;20037;-85
2022/05/01 10:50:17;;;;;;;;;;;;;;;;;;5046323;28;20132;-85
2022/05/01 10:53:03;;;;;;;6.03;4.18;;;;;;;;;;5046318;28;20007;-85
2022/05/01 10:55:51;;;;;;;9.95;6.22;;;;;;;;;;5048002;28;20039;-89
2022/05/01 10:58:17;;;;;;;;;;;;;;;;;;5046115;28;20085;-85
2022/05/01 11:00:46;;;;;;;19.00;9.52;;;;;;;;;;5046031;28;19944;-85
2022/05/01 11:03:28;;;;;;;120.50;65.03;;;;;;;;;;5046014;28;20389;-87
2022/05/01 11:06:08;;;;;;;63.22;25.02;;;;;;;;;;5050718;28;20353;-84
2022/05/01 11:08:36;;;;;;;1072.03;572.22;;;;;;;;;;5048226;28;20447;-85
2022/05/01 11:11:02;;;;;;;499.30;300.70;;;;;;;;;;5048330;28;20066;-84
2022/05/01 11:13:31;;;;;;;535.13;338.98;;;;;;;;;;5048660;28;20021;-84
2022/05/01 11:15:57;;;;;;;430.52;248.57;;;;;;;;;;5048907;28;20104;-84
2022/05/01 11:18:52;;;;;;;67.90;40.72;;;;;;;;;;5048743;28;20029;-85
2022/05/01 11:21:24;;;;;;;57.25;38.47;;;;;;;;;;5028723;28;20095;-84
2022/05/01 11:24:00;;;;;;;8.05;5.25;;;;;;;;;;5028671;28;20029;-86
2022/05/01 11:26:27;;;;;;;15.63;8.88;;;;;;;;;;5029614;28;20025;-86
2022/05/01 11:29:17;;;;;;;18.20;13.43;;;;;;;;;;5030340;28;20146;-85
2022/05/01 11:31:44;;;;;;;11.85;8.68;;;;;;;;;;5047530;28;20108;-86
2022/05/01 11:34:16;;;;;;;8.43;4.80;;;;;;;;;;5048118;28;20061;-86
2022/05/01 11:36:53;;;;;;;4.10;3.45;;;;;;;;;;5047547;28;20475;-88
2022/05/01 11:39:20;;;;;;;5.95;3.58;;;;;;;;;;5047111;28;20504;-87
2022/05/01 11:41:48;;;;;;;4.28;3.40;;;;;;;;;;5048421;28;20028;-88
2022/05/01 11:44:14;;;;;;;;;;;;;;;;;;5047349;28;20028;-88
2022/05/01 11:46:40;;;;;;;5.60;3.58;;;;;;;;;;5048596;28;19904;-88
2022/05/01 11:49:08;;;;;;;6.72;3.50;;;;;;;;;;5047691;28;20503;-90
2022/05/01 11:51:35;;;;;;;4.93;3.60;;;;;;;;;;5048669;28;20033;-91
2022/05/01 11:54:01;;;;;;;6.90;3.38;;;;;;;;;;5049156;28;20021;-85
2022/05/01 12:05:04;;;;;;;8.45;3.63;;;;;;;;;;5007850;28;20034;-90
2022/05/01 12:07:31;;;;;;;5.13;3.47;;;;;;;;;;5007463;28;20042;-91
2022/05/01 12:09:57;;;;;;;7.57;3.50;;;;;;;;;;5027606;28;20084;-89
2022/05/01 12:12:30;;;;;;;5.15;3.63;;;;;;;;;;5045312;28;20025;-87
2022/05/01 12:14:58;;;;;;;6.63;3.72;;;;;;;;;;5048415;28;20109;-88
2022/05/01 12:17:24;;;;;;;9.52;3.78;;;;;;;;;;5046750;28;20033;-90
2022/05/01 12:19:54;;;;;;;8.20;4.07;;;;;;;;;;5050831;28;20333;-90
2022/05/01 12:22:23;;;;;;;4.63;3.60;;;;;;;;;;5051754;28;20636;-89
2022/05/01 12:24:50;;;;;;;7.55;3.40;;;;;;;;;;5051472;28;20292;-87
2022/05/01 12:27:20;;;;;;;4.43;3.55;;;;;;;;;;5043276;28;20021;-87
2022/05/01 12:29:51;;;;;;;5.70;3.67;;;;;;;;;;5037173;28;20048;-87
2022/05/01 12:32:18;;;;;;;6.07;3.65;;;;;;;;;;5054381;28;20028;-88
2022/05/01 12:34:49;;;;;;;7.57;3.70;;;;;;;;;;5057214;28;20033;-87
2022/05/01 12:37:32;;;;;;;6.20;3.67;;;;;;;;;;5053404;28;20025;-88
2022/05/01 12:40:09;;;;;;;5.18;3.60;;;;;;;;;;5073804;28;20119;-88
2022/05/01 12:45:40;;;;;;;5.65;3.75;;;;;;;;;;5049578;28;20039;-88
2022/05/01 12:48:07;;;;;;;8.02;3.25;;;;;;;;;;5049221;28;20548;-87
2022/05/01 12:50:37;;;;;;;3.67;3.00;;;;;;;;;;5050727;28;20432;-87
2022/05/01 12:53:22;;;;;;;5.63;3.40;;;;;;;;;;5051742;28;20096;-88
2022/05/01 12:55:48;;;;;;;4.13;3.45;;;;;;;;;;5058194;28;20033;-89
2022/05/01 12:58:15;;;;;;;7.47;3.47;;;;;;;;;;5053182;28;20104;-88
2022/05/01 13:00:42;;;;;;;6.85;3.22;;;;;;;;;;5052421;28;20062;-89
2022/05/01 13:03:25;;;;;;;4.88;3.55;;;;;;;;;;5054446;28;20017;-89
2022/05/01 13:06:11;;;;;;;6.68;3.58;;;;;;;;;;5053449;28;20033;-88
2022/05/01 13:08:42;;;;;;;4.43;3.33;;;;;;;;;;5066314;28;20108;-86
2022/05/01 13:11:14;;;;;;;11.30;4.20;;;;;;;;;;5064868;28;20108;-87
2022/05/01 13:13:43;;;;;;;7.47;3.20;;;;;;;;;;5059126;28;20044;-87
2022/05/01 13:16:10;;;;;;;5.03;3.78;;;;;;;;;;5057865;28;20025;-88
2022/05/01 13:18:36;;;;;;;5.80;3.42;;;;;;;;;;5059204;28;20021;-87
2022/05/01 13:21:03;;;;;;;5.35;3.60;;;;;;;;;;5047818;28;20033;-88
2022/05/01 13:23:29;;;;;;;6.68;3.40;;;;;;;;;;5054922;28;20031;-87
2022/05/01 13:25:55;;;;;;;6.97;3.40;;;;;;;;;;5049086;28;20036;-87
2022/05/01 13:28:21;;;;;;;5.38;3.10;;;;;;;;;;5054769;28;20032;-86
2022/05/01 13:30:47;;;;;;;6.22;3.35;;;;;;;;;;5050963;28;20063;-87
2022/05/01 13:33:13;;;;;;;6.82;3.78;;;;;;;;;;5054170;28;20087;-87
2022/05/01 13:35:39;;;;;;;7.22;3.78;;;;;;;;;;5050860;28;20112;-86
2022/05/01 13:38:05;;;;;;;5.88;3.45;;;;;;;;;;5053918;28;20941;-87
2022/05/01 13:46:01;;;;;;;4.32;3.10;;;;;;;;;;5053444;28;20043;-87
2022/05/01 13:48:27;;;;;;;4.50;3.00;;;;;;;;;;5052353;28;20043;-86
2022/05/01 13:50:53;;;;;;;7.57;3.30;;;;;;;;;;5052812;28;20032;-88
2022/05/01 13:53:19;;;;;;;4.00;2.85;;;;;;;;;;5051800;28;20086;-86
2022/05/01 13:55:45;;;;;;;3.67;3.15;;;;;;;;;;5050987;28;20055;-87
2022/05/01 13:58:11;;;;;;;5.10;3.38;;;;;;;;;;5052610;28;20171;-87
2022/05/01 14:00:37;;;;;;;4.03;3.15;;;;;;;;;;5049564;28;20178;-87
2022/05/01 14:03:10;;;;;;;5.82;3.80;;;;;;;;;;5046651;28;20778;-86
2022/05/01 14:05:37;;;;;;;5.40;3.30;;;;;;;;;;5050073;28;20036;-86
2022/05/01 14:08:05;;;;;;;3.88;3.10;;;;;;;;;;5049130;28;20048;-86
2022/05/01 14:10:32;;;;;;;4.63;3.03;;;;;;;;;;5024907;28;20056;-86
2022/05/01 14:12:59;;;;;;;4.80;2.90;;;;;;;;;;5025581;28;20013;-89
2022/05/01 14:15:29;;;;;;;4.93;3.27;;;;;;;;;;5027646;28;20493;-90
2022/05/01 14:17:57;;;;;;;4.40;2.90;;;;;;;;;;5026635;28;20036;-88
2022/05/01 14:20:23;;;;;;;;;;;;;;;;;;5025314;28;20029;-89
2022/05/01 14:22:49;;;;;;;7.95;3.20;;;;;;;;;;5025507;28;19908;-88
2022/05/01 14:25:16;;;;;;;4.80;3.20;;;;;;;;;;5026288;28;20033;-89
2022/05/01 14:27:42;;;;;;;3.88;3.00;;;;;;;;;;5028981;28;20036;-89
2022/05/01 14:30:09;;;;;;;9.00;3.33;;;;;;;;;;5030296;28;20493;-90
2022/05/01 14:32:38;;;;;;;8.57;3.20;;;;;;;;;;5029960;28;20022;-91
2022/05/01 14:35:05;;;;;;;6.95;3.15;;;;;;;;;;5030239;28;20036;-89
2022/05/01 14:37:37;;;;;;;4.57;2.70;;;;;;;;;;5029627;28;20021;-89
2022/05/01 14:40:04;;;;;;;6.80;2.88;;;;;;;;;;5029442;28;20420;-88
2022/05/01 14:42:32;;;;;;;6.88;2.97;;;;;;;;;;5030118;28;20033;-90
2022/05/01 14:45:05;;;;;;;4.55;2.90;;;;;;;;;;5029798;28;20026;-89
2022/05/01 14:47:39;;;;;;;3.60;2.85;;;;;;;;;;5029864;28;20022;-88
2022/05/01 14:50:08;;;;;;;4.97;2.70;;;;;;;;;;5030191;28;20043;-89
2022/05/01 14:52:34;;;;;;;5.32;2.97;;;;;;;;;;5028022;28;20409;-87
2022/05/01 14:55:01;;;;;;;6.82;2.90;;;;;;;;;;5030816;28;20025;-87
2022/05/01 14:57:27;;;;;;;6.10;3.00;;;;;;;;;;5030104;28;20438;-87
2022/05/01 15:08:14;;;;;;;5.38;2.90;;;;;;;;;;5028737;28;20536;-84
2022/05/01 15:10:43;;;;;;;5.47;3.05;;;;;;;;;;5029183;28;20029;-86
2022/05/01 15:13:09;;;;;;;3.55;2.70;;;;;;;;;;5029277;28;20022;-83
2022/05/01 15:15:54;;;;;;;4.78;3.03;;;;;;;;;;5028983;28;20025;-84
2022/05/01 15:18:22;;;;;;;5.82;3.10;;;;;;;;;;5036517;28;20021;-84
2022/05/01 15:20:53;;;;;;;8.50;3.25;;;;;;;;;;5048723;28;20028;-85
2022/05/01 15:23:38;;;;;;;8.23;2.83;;;;;;;;;;5047159;28;20017;-87
2022/05/01 15:26:05;;;;;;;4.05;2.72;;;;;;;;;;5046364;28;20501;-86
2022/05/01 15:28:31;;;;;;;5.50;2.80;;;;;;;;;;5048004;28;20063;-84